Time;durP1;ratioP1;P1;durP2;ratioP2;P2;SDS_P1;SDS_P2;PMS_P1;PMS_P2;Temp;Humidity;BMP_temperature;BMP_pressure;BME280_temperature;BME280_humidity;BME280_pressure;Samples;Min_cycle;Max_cycle;Signal;HPM_P1;HPM_P2
2023/01/03 00:01:06;;;;;;;21.48;14.13;;;;;;;;;;6279755;28;20045;-76
2023/01/03 00:04:08;;;;;;;21.55;14.43;;;;;;;;;;6276280;28;20056;-75
2023/01/03 00:07:11;;;;;;;22.52;14.77;;;;;;;;;;6279162;28;20044;-76
2023/01/03 00:10:12;;;;;;;21.98;14.45;;;;;;;;;;6279138;28;20055;-75
2023/01/03 00:13:14;;;;;;;21.08;14.02;;;;;;;;;;6277935;28;20094;-76
2023/01/03 00:16:16;;;;;;;21.80;14.10;;;;;;;;;;6278973;28;20099;-76
2023/01/03 00:19:18;;;;;;;21.67;13.88;;;;;;;;;;6279792;28;20052;-76
2023/01/03 00:22:21;;;;;;;20.05;13.85;;;;;;;;;;6279666;28;20049;-76
2023/01/03 00:25:23;;;;;;;20.60;14.05;;;;;;;;;;6276614;28;20131;-76
2023/01/03 00:28:24;;;;;;;18.23;13.10;;;;;;;;;;6279460;28;20053;-75
2023/01/03 00:31:26;;;;;;;21.20;14.02;;;;;;;;;;6276138;28;20049;-75
2023/01/03 00:34:28;;;;;;;18.30;13.50;;;;;;;;;;6285101;28;20078;-76
2023/01/03 00:37:31;;;;;;;20.38;13.23;;;;;;;;;;6287366;28;20207;-75
2023/01/03 00:40:33;;;;;;;19.45;13.82;;;;;;;;;;6284867;28;20087;-75
2023/01/03 00:43:35;;;;;;;18.35;13.60;;;;;;;;;;6287318;28;20142;-76
2023/01/03 00:46:37;;;;;;;17.90;13.52;;;;;;;;;;6287850;28;20325;-76
2023/01/03 00:49:39;;;;;;;18.27;13.35;;;;;;;;;;6288218;28;20048;-75
2023/01/03 00:52:42;;;;;;;18.83;13.40;;;;;;;;;;6288548;28;20055;-76
2023/01/03 00:55:43;;;;;;;18.38;13.02;;;;;;;;;;6285845;28;20052;-75
2023/01/03 00:58:45;;;;;;;17.73;12.57;;;;;;;;;;6286062;28;20041;-75
2023/01/03 01:01:48;;;;;;;16.25;12.32;;;;;;;;;;6285922;28;20052;-75
2023/01/03 01:04:51;;;;;;;18.40;13.30;;;;;;;;;;6287396;28;20094;-75
2023/01/03 01:07:54;;;;;;;18.63;13.32;;;;;;;;;;6287069;28;20189;-75
2023/01/03 01:11:02;;;;;;;17.52;12.48;;;;;;;;;;6288587;28;20045;-74
2023/01/03 01:14:18;;;;;;;18.63;12.60;;;;;;;;;;6289694;28;20053;-75
2023/01/03 01:17:20;;;;;;;19.25;13.48;;;;;;;;;;6287598;28;20056;-75
2023/01/03 01:20:21;;;;;;;17.02;12.07;;;;;;;;;;6283285;28;20044;-75
2023/01/03 01:23:25;;;;;;;17.50;12.18;;;;;;;;;;6288340;28;20045;-75
2023/01/03 01:26:27;;;;;;;17.45;12.48;;;;;;;;;;6286194;28;20049;-75
2023/01/03 01:29:28;;;;;;;17.45;12.05;;;;;;;;;;6283933;28;20384;-75
2023/01/03 01:32:30;;;;;;;17.38;12.32;;;;;;;;;;6284194;28;20328;-76
2023/01/03 01:35:32;;;;;;;16.55;12.13;;;;;;;;;;6285247;28;20087;-75
2023/01/03 01:38:36;;;;;;;15.85;11.60;;;;;;;;;;6277190;28;20056;-75
2023/01/03 01:44:59;;;;;;;14.60;10.95;;;;;;;;;;6279940;28;20057;-76
2023/01/03 01:48:04;;;;;;;15.88;11.68;;;;;;;;;;6273449;28;20057;-75
2023/01/03 01:51:08;;;;;;;16.50;11.80;;;;;;;;;;6279046;28;20047;-76
2023/01/03 01:54:11;;;;;;;14.50;10.93;;;;;;;;;;6276886;28;20061;-74
2023/01/03 01:57:16;;;;;;;16.95;11.95;;;;;;;;;;6277936;28;20049;-75
2023/01/03 02:00:18;;;;;;;18.23;12.63;;;;;;;;;;6278471;28;20224;-74
2023/01/03 02:03:20;;;;;;;17.48;12.57;;;;;;;;;;6277518;28;20391;-75
2023/01/03 02:06:22;;;;;;;18.08;12.50;;;;;;;;;;6277345;28;20057;-75
2023/01/03 02:09:25;;;;;;;16.52;11.95;;;;;;;;;;6275382;28;20045;-75
2023/01/03 02:13:06;;;;;;;16.88;11.80;;;;;;;;;;6276494;28;20152;-75
2023/01/03 02:16:19;;;;;;;16.33;11.75;;;;;;;;;;6275783;28;20207;-74
2023/01/03 02:19:51;;;;;;;15.60;11.57;;;;;;;;;;6274607;28;20049;-73
2023/01/03 02:23:24;;;;;;;18.10;12.02;;;;;;;;;;6256545;28;20399;-75
2023/01/03 02:26:49;;;;;;;19.38;12.18;;;;;;;;;;6280170;28;20049;-75
2023/01/03 02:30:24;;;;;;;15.95;10.98;;;;;;;;;;6274831;28;20045;-75
2023/01/03 02:33:31;;;;;;;15.48;10.65;;;;;;;;;;6272466;28;20052;-78
2023/01/03 02:36:37;;;;;;;15.77;10.80;;;;;;;;;;6277756;28;20060;-78
2023/01/03 02:39:45;;;;;;;15.65;11.50;;;;;;;;;;6277790;28;20045;-80
2023/01/03 02:43:00;;;;;;;15.38;11.40;;;;;;;;;;6276125;28;20114;-76
2023/01/03 02:46:06;;;;;;;14.57;10.60;;;;;;;;;;6278629;28;20044;-76
2023/01/03 02:49:10;;;;;;;17.00;11.65;;;;;;;;;;6277256;28;20248;-76
2023/01/03 02:52:14;;;;;;;15.88;11.70;;;;;;;;;;6276619;28;20325;-79
2023/01/03 02:55:17;;;;;;;18.17;11.82;;;;;;;;;;6276488;28;20049;-77
2023/01/03 02:58:23;;;;;;;16.85;10.93;;;;;;;;;;6274974;28;20095;-73
2023/01/03 03:01:27;;;;;;;16.15;11.27;;;;;;;;;;6277868;28;20083;-79
2023/01/03 03:04:29;;;;;;;17.45;12.43;;;;;;;;;;6275213;28;20240;-77
2023/01/03 03:07:34;;;;;;;20.73;12.75;;;;;;;;;;6273762;28;20297;-79
2023/01/03 03:14:00;;;;;;;15.93;11.27;;;;;;;;;;6276200;28;20053;-76
2023/01/03 03:17:06;;;;;;;17.08;12.45;;;;;;;;;;6276261;28;20336;-77
2023/01/03 03:26:53;;;;;;;16.27;11.13;;;;;;;;;;6274736;28;20197;-76
2023/01/03 03:29:56;;;;;;;17.05;11.80;;;;;;;;;;6271009;28;20261;-76
2023/01/03 03:33:04;;;;;;;17.33;11.90;;;;;;;;;;6272143;28;20045;-77
2023/01/03 03:36:12;;;;;;;16.20;11.52;;;;;;;;;;6274290;28;20397;-76
2023/01/03 03:46:01;;;;;;;15.85;11.10;;;;;;;;;;6277172;28;20052;-76
2023/01/03 03:52:29;;;;;;;14.90;11.18;;;;;;;;;;6269308;28;20312;-76
2023/01/03 03:55:35;;;;;;;16.77;12.00;;;;;;;;;;6273751;28;20106;-77
2023/01/03 03:58:40;;;;;;;18.67;12.52;;;;;;;;;;6266405;28;20190;-77
2023/01/03 04:01:42;;;;;;;18.10;12.57;;;;;;;;;;6273337;28;20280;-77
2023/01/03 04:04:47;;;;;;;17.27;12.68;;;;;;;;;;6275500;28;20052;-77
2023/01/03 04:07:49;;;;;;;16.42;11.82;;;;;;;;;;6269634;28;20347;-76
2023/01/03 04:10:51;;;;;;;18.92;11.82;;;;;;;;;;6269907;28;20088;-78
2023/01/03 04:13:53;;;;;;;20.20;12.25;;;;;;;;;;6274294;28;20041;-77
2023/01/03 04:16:54;;;;;;;18.67;12.70;;;;;;;;;;6272612;28;20048;-74
2023/01/03 04:19:57;;;;;;;18.80;11.68;;;;;;;;;;6273583;28;20233;-76
2023/01/03 04:22:59;;;;;;;18.90;12.50;;;;;;;;;;6275847;28;20098;-77
2023/01/03 04:26:01;;;;;;;20.20;13.02;;;;;;;;;;6274361;28;20120;-76
2023/01/03 04:29:03;;;;;;;17.73;12.70;;;;;;;;;;6271561;28;20048;-77
2023/01/03 04:32:05;;;;;;;21.30;13.65;;;;;;;;;;6271422;28;20044;-77
2023/01/03 04:35:08;;;;;;;22.08;13.65;;;;;;;;;;6272311;28;20087;-74
2023/01/03 04:38:10;;;;;;;19.42;12.95;;;;;;;;;;6273169;28;20112;-77
2023/01/03 04:41:12;;;;;;;19.33;13.10;;;;;;;;;;6273609;28;20048;-77
2023/01/03 04:44:13;;;;;;;21.55;14.02;;;;;;;;;;6274506;28;20178;-75
2023/01/03 04:47:15;;;;;;;21.50;14.38;;;;;;;;;;6270295;28;20247;-75
2023/01/03 04:50:18;;;;;;;24.30;14.30;;;;;;;;;;6272624;28;20095;-76
2023/01/03 04:53:20;;;;;;;24.83;15.07;;;;;;;;;;6272493;28;20088;-77
2023/01/03 04:56:25;;;;;;;20.52;13.63;;;;;;;;;;6271234;28;20268;-77
2023/01/03 04:59:27;;;;;;;19.52;14.30;;;;;;;;;;6273113;28;20306;-77
2023/01/03 05:02:28;;;;;;;22.83;14.73;;;;;;;;;;6269180;28;21855;-77
2023/01/03 05:05:32;;;;;;;20.35;13.95;;;;;;;;;;6271207;28;20041;-77
2023/01/03 05:08:33;;;;;;;20.90;14.10;;;;;;;;;;6271941;28;20059;-76
2023/01/03 05:11:35;;;;;;;18.63;13.02;;;;;;;;;;6273255;28;20232;-77
2023/01/03 05:14:40;;;;;;;22.42;14.07;;;;;;;;;;6272224;28;20329;-77
2023/01/03 05:17:41;;;;;;;17.77;13.05;;;;;;;;;;6273682;28;20321;-77
2023/01/03 05:27:24;;;;;;;15.60;12.05;;;;;;;;;;6274794;28;20049;-77
2023/01/03 05:30:26;;;;;;;17.95;13.00;;;;;;;;;;6279380;28;20099;-77
2023/01/03 05:33:28;;;;;;;16.05;11.95;;;;;;;;;;6278196;28;20052;-77
2023/01/03 05:36:31;;;;;;;16.35;11.95;;;;;;;;;;6275780;28;20049;-77
2023/01/03 05:39:33;;;;;;;16.83;11.75;;;;;;;;;;6275125;28;20182;-77
2023/01/03 05:42:34;;;;;;;15.68;11.57;;;;;;;;;;6278968;28;20099;-77
2023/01/03 05:45:36;;;;;;;14.43;11.10;;;;;;;;;;6276679;28;20049;-75
2023/01/03 05:48:38;;;;;;;13.82;11.25;;;;;;;;;;6276941;28;20457;-77
2023/01/03 05:51:41;;;;;;;15.05;11.60;;;;;;;;;;6281558;28;20271;-77
2023/01/03 05:54:42;;;;;;;15.73;10.55;;;;;;;;;;6276922;28;20053;-77
2023/01/03 05:57:46;;;;;;;15.20;11.55;;;;;;;;;;6275829;28;20053;-78
2023/01/03 06:00:47;;;;;;;17.00;12.03;;;;;;;;;;6278436;28;20324;-77
2023/01/03 06:03:49;;;;;;;15.52;11.73;;;;;;;;;;6273975;28;20333;-75
2023/01/03 06:06:52;;;;;;;14.27;10.80;;;;;;;;;;6278737;28;20048;-78
2023/01/03 06:09:54;;;;;;;13.10;10.32;;;;;;;;;;6276719;28;20060;-77
2023/01/03 06:12:55;;;;;;;14.73;11.52;;;;;;;;;;6277654;28;20045;-78
2023/01/03 06:19:18;;;;;;;14.43;10.30;;;;;;;;;;6273397;28;20122;-76
2023/01/03 06:22:21;;;;;;;13.98;10.65;;;;;;;;;;6275662;28;20045;-76
2023/01/03 06:25:23;;;;;;;14.88;11.57;;;;;;;;;;6275700;28;20191;-78
2023/01/03 06:28:25;;;;;;;11.88;9.65;;;;;;;;;;6275029;28;20102;-76
2023/01/03 06:31:26;;;;;;;12.32;9.68;;;;;;;;;;6274551;28;20280;-78
2023/01/03 06:34:29;;;;;;;12.77;8.95;;;;;;;;;;6274207;28;20049;-76
2023/01/03 06:37:32;;;;;;;11.95;8.98;;;;;;;;;;6273661;28;20256;-76
2023/01/03 06:40:33;;;;;;;11.98;9.13;;;;;;;;;;6275968;28;20054;-77
2023/01/03 06:43:35;;;;;;;9.95;7.68;;;;;;;;;;6278123;28;20241;-77
2023/01/03 06:53:19;;;;;;;10.02;8.13;;;;;;;;;;6274781;28;20045;-72
2023/01/03 06:56:22;;;;;;;10.73;8.60;;;;;;;;;;6276394;28;20061;-77
2023/01/03 06:59:23;;;;;;;11.55;8.60;;;;;;;;;;6273087;28;20281;-75
2023/01/03 07:02:25;;;;;;;12.90;9.75;;;;;;;;;;6274937;28;20158;-77
2023/01/03 07:05:27;;;;;;;13.38;10.05;;;;;;;;;;6277924;28;20051;-79
2023/01/03 07:08:30;;;;;;;12.43;9.90;;;;;;;;;;6273343;28;20060;-79
2023/01/03 07:11:31;;;;;;;12.25;9.18;;;;;;;;;;6269357;28;20052;-78
2023/01/03 07:14:32;;;;;;;13.05;10.27;;;;;;;;;;6275564;28;20122;-76
2023/01/03 07:17:34;;;;;;;13.98;10.60;;;;;;;;;;6278449;28;20052;-73
2023/01/03 07:20:35;;;;;;;14.55;10.30;;;;;;;;;;6273604;28;20052;-78
2023/01/03 07:23:38;;;;;;;14.70;10.75;;;;;;;;;;6274489;28;20175;-79
2023/01/03 07:26:40;;;;;;;14.68;10.68;;;;;;;;;;6274550;28;20371;-77
2023/01/03 07:29:42;;;;;;;13.80;10.10;;;;;;;;;;6274119;28;20049;-79
2023/01/03 07:32:44;;;;;;;15.05;10.77;;;;;;;;;;6273271;28;20052;-79
2023/01/03 07:35:45;;;;;;;18.70;11.70;;;;;;;;;;6269432;28;20244;-79
2023/01/03 07:38:48;;;;;;;16.60;12.00;;;;;;;;;;6273231;28;20055;-79
2023/01/03 07:45:10;;;;;;;19.13;12.30;;;;;;;;;;6270554;28;20329;-79
2023/01/03 07:48:12;;;;;;;16.50;12.00;;;;;;;;;;6276040;28;20248;-79
2023/01/03 07:51:15;;;;;;;14.80;11.02;;;;;;;;;;6270254;28;20102;-78
2023/01/03 07:54:18;;;;;;;16.73;11.02;;;;;;;;;;6276278;28;20163;-78
2023/01/03 07:57:20;;;;;;;18.15;10.95;;;;;;;;;;6274438;28;20220;-78
2023/01/03 08:00:22;;;;;;;15.90;10.80;;;;;;;;;;6271824;28;20041;-79
2023/01/03 08:03:23;;;;;;;15.05;9.98;;;;;;;;;;6270595;28;20051;-72
2023/01/03 08:06:25;;;;;;;17.52;11.40;;;;;;;;;;6274816;28;20045;-76
2023/01/03 08:16:09;;;;;;;20.10;10.80;;;;;;;;;;6275647;28;20104;-77
2023/01/03 08:19:10;;;;;;;17.23;10.82;;;;;;;;;;6268256;28;20051;-77
2023/01/03 08:22:12;;;;;;;15.75;11.05;;;;;;;;;;6274435;28;20044;-76
2023/01/03 08:25:15;;;;;;;16.98;10.25;;;;;;;;;;6275929;28;20045;-76
2023/01/03 08:28:17;;;;;;;15.00;10.30;;;;;;;;;;6276313;28;20128;-78
2023/01/03 08:31:21;;;;;;;16.77;10.23;;;;;;;;;;6274109;28;20086;-72
2023/01/03 08:34:24;;;;;;;14.65;8.98;;;;;;;;;;6272992;28;20052;-76
2023/01/03 08:37:26;;;;;;;15.75;9.02;;;;;;;;;;6273669;28;20312;-76
2023/01/03 08:40:30;;;;;;;14.25;8.68;;;;;;;;;;6273168;28;20110;-72
2023/01/03 08:43:35;;;;;;;16.52;9.27;;;;;;;;;;6272743;28;20045;-76
2023/01/03 08:46:39;;;;;;;17.73;9.55;;;;;;;;;;6272205;28;20056;-76
2023/01/03 08:49:41;;;;;;;16.48;8.77;;;;;;;;;;6272546;28;20052;-76
2023/01/03 08:52:42;;;;;;;14.38;8.35;;;;;;;;;;6269993;28;20053;-75
2023/01/03 08:55:45;;;;;;;14.05;7.55;;;;;;;;;;6276048;28;20044;-76
2023/01/03 08:58:47;;;;;;;12.43;8.57;;;;;;;;;;6277977;28;20115;-76
2023/01/03 09:01:49;;;;;;;15.90;8.35;;;;;;;;;;6283193;28;20056;-76
2023/01/03 09:04:50;;;;;;;13.70;8.38;;;;;;;;;;6278316;28;20057;-77
2023/01/03 09:07:53;;;;;;;13.63;7.97;;;;;;;;;;6274055;28;20085;-75
2023/01/03 09:10:56;;;;;;;12.85;8.10;;;;;;;;;;6277220;28;20087;-76
2023/01/03 09:13:58;;;;;;;13.45;8.32;;;;;;;;;;6279631;28;20048;-75
2023/01/03 09:16:59;;;;;;;13.40;8.13;;;;;;;;;;6281391;28;20055;-77
2023/01/03 09:20:01;;;;;;;16.83;8.70;;;;;;;;;;6279068;28;20383;-76
2023/01/03 09:23:03;;;;;;;16.27;8.60;;;;;;;;;;6276625;28;20057;-75
2023/01/03 09:26:06;;;;;;;16.85;8.20;;;;;;;;;;6280212;28;20053;-76
2023/01/03 09:29:08;;;;;;;15.43;9.05;;;;;;;;;;6278602;28;20053;-76
2023/01/03 09:32:10;;;;;;;16.27;9.15;;;;;;;;;;6282535;28;20052;-76
2023/01/03 09:35:11;;;;;;;13.40;8.40;;;;;;;;;;6277376;28;20254;-76
2023/01/03 09:38:13;;;;;;;14.18;8.52;;;;;;;;;;6279515;28;20045;-77
2023/01/03 09:41:20;;;;;;;14.50;8.65;;;;;;;;;;6277969;28;20150;-76
2023/01/03 09:44:21;;;;;;;13.55;8.57;;;;;;;;;;6276209;28;20299;-76
2023/01/03 09:47:24;;;;;;;14.80;9.43;;;;;;;;;;6275267;28;20056;-75
2023/01/03 09:50:29;;;;;;;18.52;9.77;;;;;;;;;;6279178;28;20091;-75
2023/01/03 10:03:45;;;;;;;19.48;9.73;;;;;;;;;;6278939;28;20076;-76
2023/01/03 10:06:51;;;;;;;19.13;9.98;;;;;;;;;;6279080;28;20044;-75
2023/01/03 10:09:59;;;;;;;21.58;10.88;;;;;;;;;;6277051;28;20057;-76
2023/01/03 10:13:11;;;;;;;19.77;10.23;;;;;;;;;;6279463;28;20045;-75
2023/01/03 10:16:16;;;;;;;19.92;10.65;;;;;;;;;;6277634;28;20112;-76
2023/01/03 10:19:52;;;;;;;18.23;10.27;;;;;;;;;;6278757;28;20051;-76
2023/01/03 10:22:55;;;;;;;17.40;10.80;;;;;;;;;;6246661;28;20052;-76
2023/01/03 10:25:57;;;;;;;17.80;10.02;;;;;;;;;;6279360;28;20280;-76
2023/01/03 10:29:01;;;;;;;18.33;10.55;;;;;;;;;;6275382;28;20055;-75
2023/01/03 10:32:14;;;;;;;20.20;10.85;;;;;;;;;;6277597;28;20067;-75
2023/01/03 10:35:19;;;;;;;21.48;11.27;;;;;;;;;;6278824;28;20045;-75
2023/01/03 10:38:21;;;;;;;26.58;13.70;;;;;;;;;;6275552;28;20099;-72
2023/01/03 10:41:30;;;;;;;27.30;13.98;;;;;;;;;;6277990;28;20051;-75
2023/01/03 10:44:34;;;;;;;24.40;12.85;;;;;;;;;;6274715;28;20048;-72
2023/01/03 10:47:36;;;;;;;24.98;12.52;;;;;;;;;;6275620;28;20045;-75
2023/01/03 10:50:38;;;;;;;24.80;12.75;;;;;;;;;;6276727;28;20053;-75
2023/01/03 10:53:41;;;;;;;24.58;12.27;;;;;;;;;;6276684;28;20108;-73
2023/01/03 10:56:44;;;;;;;25.33;11.98;;;;;;;;;;6275155;28;20061;-74
2023/01/03 10:59:50;;;;;;;27.35;11.88;;;;;;;;;;6278281;28;20095;-75
2023/01/03 11:02:52;;;;;;;26.50;12.27;;;;;;;;;;6271665;28;20056;-74
2023/01/03 11:06:09;;;;;;;23.30;11.85;;;;;;;;;;6278129;28;20072;-73
2023/01/03 11:09:12;;;;;;;28.35;13.30;;;;;;;;;;6277561;28;20052;-76
2023/01/03 11:12:15;;;;;;;31.98;14.38;;;;;;;;;;6276503;28;20053;-72
2023/01/03 11:15:20;;;;;;;31.23;12.82;;;;;;;;;;6276211;28;20103;-77
2023/01/03 11:18:22;;;;;;;31.33;14.25;;;;;;;;;;6273963;28;20044;-78
2023/01/03 11:21:28;;;;;;;32.05;14.82;;;;;;;;;;6275452;28;20044;-79
2023/01/03 11:24:58;;;;;;;39.22;17.00;;;;;;;;;;6276020;28;20277;-76
2023/01/03 11:28:44;;;;;;;37.17;17.55;;;;;;;;;;6269489;28;20083;-76
2023/01/03 11:31:51;;;;;;;35.05;16.63;;;;;;;;;;6166561;28;20413;-78
2023/01/03 11:35:19;;;;;;;37.65;16.05;;;;;;;;;;6167623;28;20134;-77
2023/01/03 11:38:38;;;;;;;33.65;16.17;;;;;;;;;;6168619;28;20258;-74
2023/01/03 11:41:55;;;;;;;32.40;15.68;;;;;;;;;;6166846;28;20335;-76
2023/01/03 11:45:16;;;;;;;32.40;14.45;;;;;;;;;;6164895;28;20122;-78
2023/01/03 11:48:41;;;;;;;33.70;15.68;;;;;;;;;;6165661;28;20051;-74
2023/01/03 11:51:52;;;;;;;36.72;15.65;;;;;;;;;;6165967;28;20043;-73
2023/01/03 11:55:45;;;;;;;34.53;15.38;;;;;;;;;;6166801;28;20046;-77
2023/01/03 11:59:25;;;;;;;34.13;14.57;;;;;;;;;;6162786;28;20078;-76
2023/01/03 12:02:55;;;;;;;33.72;16.23;;;;;;;;;;6166022;28;20151;-78
2023/01/03 12:06:03;;;;;;;32.38;14.43;;;;;;;;;;6171655;28;20046;-76
2023/01/03 12:09:13;;;;;;;28.70;12.98;;;;;;;;;;6246483;28;20045;-76
2023/01/03 12:12:29;;;;;;;27.92;12.48;;;;;;;;;;6244046;28;20046;-78
2023/01/03 12:15:39;;;;;;;26.77;12.65;;;;;;;;;;6243119;28;20236;-78
2023/01/03 12:18:48;;;;;;;25.98;12.50;;;;;;;;;;6262428;28;20053;-78
2023/01/03 12:21:53;;;;;;;25.10;12.85;;;;;;;;;;6263201;28;20098;-77
2023/01/03 12:24:59;;;;;;;27.20;13.20;;;;;;;;;;6282283;28;20071;-77
2023/01/03 12:28:03;;;;;;;27.27;14.10;;;;;;;;;;6281965;28;20052;-77
2023/01/03 12:31:11;;;;;;;26.30;13.35;;;;;;;;;;6281426;28;20044;-78
2023/01/03 12:34:22;;;;;;;27.73;15.27;;;;;;;;;;6282628;28;20049;-77
2023/01/03 12:37:28;;;;;;;29.67;14.77;;;;;;;;;;6264135;28;20057;-79
2023/01/03 12:40:37;;;;;;;25.77;14.57;;;;;;;;;;6277937;28;20051;-76
2023/01/03 12:43:45;;;;;;;32.78;16.48;;;;;;;;;;6278163;28;20048;-75
2023/01/03 12:46:49;;;;;;;31.05;15.38;;;;;;;;;;6278243;28;20123;-70
2023/01/03 12:49:54;;;;;;;33.20;17.35;;;;;;;;;;6269354;28;20079;-72
2023/01/03 12:53:01;;;;;;;34.20;16.27;;;;;;;;;;6276131;28;20122;-74
2023/01/03 12:56:19;;;;;;;29.58;15.70;;;;;;;;;;6278700;28;20049;-75
2023/01/03 12:59:35;;;;;;;29.70;15.52;;;;;;;;;;6276715;28;20041;-76
2023/01/03 13:02:46;;;;;;;31.42;15.60;;;;;;;;;;6275646;28;20045;-76
2023/01/03 13:05:50;;;;;;;30.40;15.48;;;;;;;;;;6275329;28;20340;-71
2023/01/03 13:08:56;;;;;;;33.13;17.05;;;;;;;;;;6275589;28;20116;-74
2023/01/03 13:12:04;;;;;;;31.77;15.57;;;;;;;;;;6274504;28;20283;-74
2023/01/03 13:15:16;;;;;;;32.10;15.65;;;;;;;;;;6275686;28;20045;-75
2023/01/03 13:18:30;;;;;;;35.35;16.55;;;;;;;;;;6277800;28;20052;-75
2023/01/03 13:21:55;;;;;;;32.72;16.02;;;;;;;;;;6279261;28;20045;-75
2023/01/03 13:25:39;;;;;;;26.13;14.50;;;;;;;;;;6275556;28;20279;-74
2023/01/03 13:28:40;;;;;;;27.42;14.60;;;;;;;;;;6275172;28;20053;-77
2023/01/03 13:31:42;;;;;;;26.88;13.60;;;;;;;;;;6277923;28;20233;-74
2023/01/03 13:34:44;;;;;;;28.67;15.38;;;;;;;;;;6278991;28;20147;-74
2023/01/03 13:37:47;;;;;;;25.38;13.90;;;;;;;;;;6279859;28;20048;-74
2023/01/03 13:40:51;;;;;;;27.03;14.37;;;;;;;;;;6278651;28;20263;-73
2023/01/03 13:43:53;;;;;;;24.25;13.88;;;;;;;;;;6282454;28;20053;-74
2023/01/03 13:46:55;;;;;;;26.70;14.70;;;;;;;;;;6282907;28;20128;-74
2023/01/03 13:49:57;;;;;;;25.67;14.63;;;;;;;;;;6280531;28;20452;-75
2023/01/03 13:53:00;;;;;;;22.50;13.40;;;;;;;;;;6283055;28;20103;-77
2023/01/03 13:56:20;;;;;;;27.83;14.88;;;;;;;;;;6276123;28;20053;-74
2023/01/03 13:59:28;;;;;;;25.95;14.70;;;;;;;;;;6276633;28;20057;-77
2023/01/03 14:02:49;;;;;;;26.15;14.38;;;;;;;;;;6282985;28;20045;-70
2023/01/03 14:06:20;;;;;;;27.20;14.65;;;;;;;;;;6280760;28;20055;-76
2023/01/03 14:09:57;;;;;;;27.83;14.57;;;;;;;;;;6280887;28;20061;-75
2023/01/03 14:13:21;;;;;;;28.95;15.13;;;;;;;;;;6270042;28;20383;-77
2023/01/03 14:16:26;;;;;;;26.58;15.02;;;;;;;;;;6285691;28;20055;-77
2023/01/03 14:19:31;;;;;;;27.48;15.40;;;;;;;;;;6282723;28;20275;-77
2023/01/03 14:22:37;;;;;;;29.38;16.27;;;;;;;;;;6284857;28;20111;-76
2023/01/03 14:25:40;;;;;;;28.65;15.05;;;;;;;;;;6284471;28;20044;-76
2023/01/03 14:28:47;;;;;;;30.33;15.40;;;;;;;;;;6284884;28;20048;-74
2023/01/03 14:31:52;;;;;;;29.35;15.77;;;;;;;;;;6285325;28;20053;-76
2023/01/03 14:34:53;;;;;;;28.88;15.75;;;;;;;;;;6282962;28;20079;-78
2023/01/03 14:37:55;;;;;;;28.15;15.02;;;;;;;;;;6286609;28;20110;-75
2023/01/03 14:40:57;;;;;;;27.92;15.60;;;;;;;;;;6284106;28;20098;-77
2023/01/03 14:44:02;;;;;;;29.20;15.57;;;;;;;;;;6285606;28;20059;-77
2023/01/03 14:47:07;;;;;;;30.60;16.80;;;;;;;;;;6284490;28;20049;-77
2023/01/03 14:50:14;;;;;;;31.20;15.63;;;;;;;;;;6284533;28;20250;-76
2023/01/03 14:53:17;;;;;;;27.90;15.18;;;;;;;;;;6282119;28;20049;-77
2023/01/03 14:56:23;;;;;;;27.33;16.90;;;;;;;;;;6283800;28;20055;-73
2023/01/03 14:59:26;;;;;;;28.67;16.67;;;;;;;;;;6285657;28;20053;-78
2023/01/03 15:02:30;;;;;;;30.08;16.00;;;;;;;;;;6283562;28;20059;-77
2023/01/03 15:05:33;;;;;;;29.40;15.98;;;;;;;;;;6285692;28;20096;-77
2023/01/03 15:08:42;;;;;;;30.73;16.67;;;;;;;;;;6284907;28;20040;-75
2023/01/03 15:11:55;;;;;;;34.30;16.70;;;;;;;;;;6282087;28;20036;-74
2023/01/03 16:14:15;;;;;;;36.90;16.92;;;;;;;;;;6298975;22;20610;-77
2023/01/03 16:17:21;;;;;;;37.95;18.17;;;;;;;;;;6272838;28;20107;-77
2023/01/03 16:20:23;;;;;;;43.17;19.80;;;;;;;;;;6294237;28;20059;-77
2023/01/03 16:23:27;;;;;;;43.63;19.75;;;;;;;;;;6294301;28;20056;-77
2023/01/03 16:26:28;;;;;;;43.22;20.98;;;;;;;;;;6292921;28;20049;-77
2023/01/03 16:29:32;;;;;;;38.67;19.58;;;;;;;;;;6287534;28;20049;-76
2023/01/03 16:32:33;;;;;;;38.75;18.10;;;;;;;;;;6280402;28;20402;-76
2023/01/03 16:35:35;;;;;;;38.75;18.67;;;;;;;;;;6296492;28;20052;-76
2023/01/03 16:38:37;;;;;;;36.67;17.77;;;;;;;;;;6302074;28;20048;-77
2023/01/03 16:41:39;;;;;;;36.55;17.80;;;;;;;;;;6305150;28;20070;-78
2023/01/03 16:44:43;;;;;;;34.08;17.08;;;;;;;;;;6306594;28;20057;-77
2023/01/03 16:47:44;;;;;;;;;;;;;;;;;;6299542;28;20086;-76
2023/01/03 16:50:46;;;;;;;33.25;16.73;;;;;;;;;;6306064;28;19916;-76
2023/01/03 16:53:48;;;;;;;34.20;16.75;;;;;;;;;;6306135;28;20051;-73
2023/01/03 16:56:50;;;;;;;34.78;17.45;;;;;;;;;;6301019;28;20056;-77
2023/01/03 16:59:53;;;;;;;33.05;16.33;;;;;;;;;;6298490;28;20395;-77
2023/01/03 17:02:57;;;;;;;32.28;16.63;;;;;;;;;;6301091;28;20063;-77
2023/01/03 17:05:59;;;;;;;30.08;16.20;;;;;;;;;;6301341;28;20058;-77
2023/01/03 17:09:04;;;;;;;31.50;16.65;;;;;;;;;;6302489;28;20053;-77
2023/01/03 17:12:06;;;;;;;33.50;16.98;;;;;;;;;;6304732;28;20060;-78
2023/01/03 17:15:11;;;;;;;34.58;18.60;;;;;;;;;;6304836;28;20057;-77
2023/01/03 17:18:17;;;;;;;34.97;18.50;;;;;;;;;;6301851;28;20382;-78
2023/01/03 17:21:24;;;;;;;30.52;19.00;;;;;;;;;;6307222;28;20236;-78
2023/01/03 17:24:28;;;;;;;34.25;20.40;;;;;;;;;;6293329;28;20055;-78
2023/01/03 17:27:29;;;;;;;31.55;19.70;;;;;;;;;;6284586;28;20080;-77
2023/01/03 17:30:33;;;;;;;35.03;20.17;;;;;;;;;;6287575;28;20057;-78
2023/01/03 17:33:34;;;;;;;33.28;19.55;;;;;;;;;;6288289;28;20049;-77
2023/01/03 17:36:36;;;;;;;34.42;20.15;;;;;;;;;;6289946;28;20053;-77
2023/01/03 17:39:38;;;;;;;29.05;19.05;;;;;;;;;;6284974;28;20053;-78
2023/01/03 17:42:40;;;;;;;31.05;19.90;;;;;;;;;;6287425;28;20045;-77
2023/01/03 17:52:24;;;;;;;31.33;18.75;;;;;;;;;;6288175;28;20118;-77
2023/01/03 17:55:28;;;;;;;31.52;19.23;;;;;;;;;;6288626;28;20053;-78
2023/01/03 17:58:30;;;;;;;;;;;;;;;;;;6286698;28;20041;-77
2023/01/03 18:01:33;;;;;;;27.75;18.65;;;;;;;;;;6289519;28;20081;-75
2023/01/03 18:04:35;;;;;;;31.30;19.43;;;;;;;;;;6288323;28;20112;-76
2023/01/03 18:07:37;;;;;;;33.60;20.33;;;;;;;;;;6286433;28;20056;-76
2023/01/03 18:10:41;;;;;;;30.17;19.00;;;;;;;;;;6287336;28;20094;-77
2023/01/03 18:13:43;;;;;;;31.73;19.83;;;;;;;;;;6284415;28;20052;-77
2023/01/03 18:16:46;;;;;;;31.15;20.27;;;;;;;;;;6287629;28;20816;-77
2023/01/03 18:19:48;;;;;;;33.28;20.10;;;;;;;;;;6288677;28;20040;-77
2023/01/03 18:22:49;;;;;;;29.02;18.52;;;;;;;;;;6288466;28;20052;-76
2023/01/03 18:25:51;;;;;;;27.08;17.40;;;;;;;;;;6285875;28;20071;-77
2023/01/03 18:28:53;;;;;;;27.45;17.33;;;;;;;;;;6285650;28;20049;-76
2023/01/03 18:31:56;;;;;;;26.63;17.73;;;;;;;;;;6289793;28;20053;-75
2023/01/03 18:34:58;;;;;;;25.00;16.58;;;;;;;;;;6289640;28;20229;-75
2023/01/03 18:38:00;;;;;;;24.73;15.38;;;;;;;;;;6284416;28;20097;-78
2023/01/03 18:41:02;;;;;;;21.83;15.15;;;;;;;;;;6282245;28;20049;-77
2023/01/03 18:44:04;;;;;;;23.65;14.77;;;;;;;;;;6288670;28;20161;-77
2023/01/03 18:47:11;;;;;;;21.25;14.07;;;;;;;;;;6285358;28;20056;-77
2023/01/03 18:50:17;;;;;;;21.23;14.40;;;;;;;;;;6288698;28;20045;-77
2023/01/03 18:53:21;;;;;;;20.48;14.15;;;;;;;;;;6286162;28;20144;-77
2023/01/03 18:56:29;;;;;;;25.88;15.55;;;;;;;;;;6283311;28;20055;-76
2023/01/03 18:59:31;;;;;;;23.02;15.77;;;;;;;;;;6283557;28;20062;-77
2023/01/03 19:02:34;;;;;;;26.25;16.73;;;;;;;;;;6284133;28;20059;-75
2023/01/03 19:05:36;;;;;;;25.65;15.88;;;;;;;;;;6282209;28;20503;-76
2023/01/03 19:08:38;;;;;;;23.60;15.05;;;;;;;;;;6284369;28;20045;-76
2023/01/03 19:11:39;;;;;;;20.63;14.32;;;;;;;;;;6288180;28;20048;-76
2023/01/03 19:14:41;;;;;;;21.02;14.80;;;;;;;;;;6263005;28;20045;-77
2023/01/03 19:17:44;;;;;;;20.90;14.73;;;;;;;;;;6258102;28;20046;-76
2023/01/03 19:20:46;;;;;;;20.83;13.70;;;;;;;;;;6260763;28;20045;-75
2023/01/03 19:23:57;;;;;;;20.98;14.10;;;;;;;;;;6257355;28;20049;-75
2023/01/03 19:27:02;;;;;;;21.92;14.60;;;;;;;;;;6258406;28;20041;-75
2023/01/03 19:30:06;;;;;;;19.63;14.15;;;;;;;;;;6261964;28;20232;-72
2023/01/03 19:33:12;;;;;;;24.65;15.48;;;;;;;;;;6255150;28;20139;-75
2023/01/03 19:36:14;;;;;;;22.73;14.95;;;;;;;;;;6261920;28;20049;-75
2023/01/03 19:39:16;;;;;;;22.90;14.90;;;;;;;;;;6260430;28;20375;-75
2023/01/03 19:45:41;;;;;;;26.88;17.52;;;;;;;;;;6260329;28;20048;-76
2023/01/03 19:48:44;;;;;;;28.60;17.92;;;;;;;;;;6258876;28;20271;-75
2023/01/03 19:51:46;;;;;;;30.23;18.17;;;;;;;;;;6264888;28;20045;-74
2023/01/03 19:54:47;;;;;;;32.67;20.15;;;;;;;;;;6263350;28;20383;-75
2023/01/03 19:57:50;;;;;;;27.42;18.50;;;;;;;;;;6249585;28;20052;-75
2023/01/03 20:00:52;;;;;;;28.58;18.88;;;;;;;;;;6256514;28;20302;-78
2023/01/03 20:03:55;;;;;;;28.20;18.27;;;;;;;;;;6258907;28;20051;-78
2023/01/03 20:06:57;;;;;;;30.05;17.65;;;;;;;;;;6249344;28;20049;-77
2023/01/03 20:09:58;;;;;;;27.42;18.42;;;;;;;;;;6262057;28;20046;-78